Tiempo atmosférico en la estación meteorológica de Tarancón, Cuenca (808 m.)



Fecha
DESCASC
Temp. máxima en grados centígrados (hora)
DESCASC
Temp. mínima en grados centígrados (hora)
DESCASC
Temp. media en grados centígrados
DESCASC
Racha de viento máxima en m/sg (hora)
DESCASC
Velocidad máxima media en intervalos de 10 minutos(hora)
DESCASC
Precipitaciones diarias en mm
DESCASC
Precipitaciones de 00:00 a 06:00 en mm
DESCASC
Precipitaciones de 06:00 a 12:00 en mm
DESCASC
Precipitaciones de 12:00 a 18:00 en mm
DESCASC
Precipitaciones de 18:00 a 24:00 en mm
DESCASC
25-04-2019 13.1 (14:40) 5.6 (08:20) 9.4 20 (15:30) 10.83 (14:50) 7.8 4.8 0.8 2.2 0
24-04-2019 12.2 (17:10) 2.8 (06:40) 7.5 19.17 (16:50) 8.61 (17:30) 5.4 0 0.2 0 5.2
23-04-2019 12.4 (16:40) 5.3 (22:40) 8.8 16.39 (17:50) 10 (17:50) 2.6 0 1.4 0 1.2
22-04-2019 17.9 (16:50) 7.3 (00:00) 12.6 8.89 (14:10) 4.72 (14:20) 1 0.6 0.4 0 0
21-04-2019 11.7 (18:10) 5.6 (00:00) 8.6 9.17 (04:00) 5.56 (04:00) 1.8 1.8 0 0 0
20-04-2019 14.4 (14:00) 7.2 (00:00) 10.8 10 (13:50) 6.11 (07:10) 4.2 0 0 0 4.2
19-04-2019 10.7 (12:20) 7.7 (00:00) 9.2 7.5 (03:30) 4.17 (03:30) 15 0 0 11.6 3.4
18-04-2019 12.3 (00:00) 8.6 (00:00) 10.5 11.94 (04:50) 7.22 (05:20) 35.2 8.8 22.4 2.6 1.4
17-04-2019 23.3 (17:10) 8.6 (00:00) 15.9 18.06 (19:10) 10.28 (18:00) 0.2 0 0 0 0.2
16-04-2019 24.2 (17:40) 7.6 (00:00) 15.9 15 (23:50) 8.06 (23:40) 0 0 0 0 0
15-04-2019 25.4 (17:50) 11.6 (00:00) 18.5 16.39 (18:30) 9.72 (18:30) 0 0 0 0 0
14-04-2019 24.6 (18:30) 8.5 (00:00) 16.6 8.33 (02:30) 5.28 (15:20) 0 0 0 0 0
13-04-2019 21.7 (18:30) 4.4 (00:00) 13.1 6.67 (13:20) 2.78 (23:30) 0 0 0 0 0
12-04-2019 18.4 (18:30) 3.4 (00:00) 10.9 10 (14:30) 4.72 (16:40) 0 0 0 0 0
11-04-2019 15.7 (16:30) 2.5 (00:00) 9.1 12.5 (16:00) 6.11 (19:10) 0 0 0 0 0
10-04-2019 14.4 (16:20) 3.4 (00:00) 8.9 12.5 (16:00) 5.83 (14:10) -- 0 -- -- 0
09-04-2019 11.4 (13:20) 5.7 (00:00) 8.5 14.72 (16:10) 9.44 (15:50) 0 0 0 0 0
08-04-2019 16.3 (17:50) 7.4 (00:00) 11.8 13.89 (14:40) 6.94 (13:40) 0 0 0 0 0
07-04-2019 11.8 (16:50) 3.4 (00:00) 7.6 13.89 (08:50) 6.94 (08:50) 0 0 0 0 0
06-04-2019 10.2 (17:30) 2.2 (00:00) 6.2 17.5 (18:00) 10 (18:10) 0 0 0 0 0
05-04-2019 8.6 (01:30) 2.6 (00:00) 5.6 16.67 (19:40) 9.72 (19:30) 0 0 0 0 0
04-04-2019 15.3 (17:40) 1.4 (00:00) 8.4 9.17 (16:20) 5 (18:30) 0 0 0 0 0
03-04-2019 17.6 (16:30) 5.7 (00:00) 11.7 15 (15:20) 5.83 (14:40) 0 0 0 0 0
02-04-2019 18.8 (16:20) 8.3 (00:00) 13.5 10.56 (18:00) 5.28 (18:00) 0 0 0 0 0
01-04-2019 17.4 (18:40) 7.6 (00:00) 12.5 4.17 (20:40) 2.5 (23:50) 0 0 0 0 0
31-03-2019 11.1 (18:40) 7.5 (00:00) 9.3 10.28 (07:20) 5.28 (07:20) 0.4 0 0 0.2 0.2
30-03-2019 21.4 (17:20) 4.5 (00:00) 12.9 13.33 (00:30) 7.22 (00:10) 0 0 0 0 0
29-03-2019 19.2 (16:40) 5.2 (00:00) 12.2 13.33 (10:40) 7.22 (10:40) 0 0 0 0 0
28-03-2019 21.3 (16:40) 4.6 (00:00) 12.9 10.56 (23:10) 6.11 (23:10) 0 0 0 0 0
27-03-2019 19.7 (18:00) 4.4 (00:00) 12.1 11.39 (00:20) 6.39 (00:20) 0 0 0 0 0

Gráficas

Temp. máximas Temp. mínimas Temp. medias Precipitaciones Rachas de viento máximas Velocidades máximas media en intervalos de 10 minutos

Datos horarios

Fecha y hora oficial Temperatura (ºC) Velocidad del viento (km/h) Dirección del viento Racha (km/h) Dirección de racha Precipitación (mm) Presión (hPa) Tendencia (hPa) Humedad (%)
2019-04-25 23:00:00 7 13 Sudoeste 37 Oeste 0 923.6 2.8 79
2019-04-25 22:00:00 7.8 18 Sudoeste 33 Oeste 0 922.4 2 75
2019-04-25 21:00:00 8.7 15 Oeste 46 Sudoeste 0 921.6 1.8 69
2019-04-25 20:00:00 10.1 30 Oeste 49 Oeste 0 920.8 1.4 60
2019-04-25 19:00:00 10.6 26 Oeste 47 Sudoeste 0 920.4 1.4 63
2019-04-25 18:00:00 10.4 27 Oeste 47 Sudoeste 0 919.8 1 68
2019-04-25 17:00:00 9.8 22 Oeste 57 Sudoeste 1.2 919.4 1 84
2019-04-25 16:00:00 10.8 15 Oeste 72 Sudoeste 1 919 0.4 84
2019-04-25 15:00:00 10.6 21 Oeste 61 Sudoeste 0 918.8 0.3 73
2019-04-25 14:00:00 11.6 28 Sudoeste 46 Oeste 0 918.4 0.4 60
2019-04-25 13:00:00 11.4 25 Sudoeste 41 Sudoeste 0 918.6 1.2 66
2019-04-25 12:00:00 10.2 22 Sudoeste 35 Sudoeste 0 918.5 1.6 70
2019-04-25 11:00:00 9 23 Oeste 39 Oeste 0 918 1.7 78
2019-04-25 10:00:00 6.4 17 Sudoeste 41 Oeste 0.2 917.4 2.1 91
2019-04-25 09:00:00 5.7 19 Oeste 46 Oeste 0.4 916.9 2 89
2019-04-25 08:00:00 6.1 17 Oeste 41 Oeste 0 916.3 1.5 88
2019-04-25 07:00:00 7.2 12 Oeste 27 Oeste 0.2 915.3 1.1 87
2019-04-25 06:00:00 7.4 14 Oeste 36 Oeste 0 914.9 2 86
2019-04-25 05:00:00 7.4 15 Oeste 39 Oeste 0 914.8 1.4 90
2019-04-25 04:00:00 7.7 25 Oeste 53 Oeste 3.6 914.2 0.7 93
2019-04-25 03:00:00 10 21 Sur 50 Sur 0.8 912.9 -1 95
2019-04-25 02:00:00 9.9 21 Sur 47 Sur 0.2 913.4 -0.8 95
2019-04-25 01:00:00 10 20 Sur 46 Sur 0.2 913.5 -0.4 94
2019-04-25 00:00:00 9.9 19 Sur 43 Sur 0.4 913.9 1.1 94
2019-04-24 23:00:00 9.8 16 Sur 48 Sudoeste 3.4 914.2 1.9 94
2019-04-24 22:00:00 9.8 24 Sudoeste 50 Sur 0.8 913.9 1.6 92
2019-04-24 21:00:00 10 25 Sur 57 Sur 0.4 912.8 0.8 91
2019-04-24 20:00:00 10.3 22 Sur 58 Sur 0.2 912.3 0.3 88
2019-04-24 19:00:00 10.9 23 Sur 64 Sudoeste 0 912.3 -0.3 82
2019-04-24 18:00:00 11.7 27 Sur 68 Sur 0 912 -1 75
2019-04-24 17:00:00 12.1 28 Sur 69 Sur 0 912 -0.5 74
2019-04-24 16:00:00 10.5 22 Sur 57 Sur 0 912.6 0.1 80
2019-04-24 15:00:00 10.2 24 Sur 51 Sur 0 913 0.7 79
2019-04-24 14:00:00 9.6 22 Sur 56 Sudoeste 0 912.5 0.6 79
2019-04-24 13:00:00 8.6 23 Sur 59 Sur 0 912.5 0.3 80
2019-04-24 12:00:00 8 25 Sur 62 Sur 0 912.3 -0.1 79
2019-04-24 11:00:00 6.6 22 Sur 51 Sur 0 911.9 -0.5 85
2019-04-24 10:00:00 5.5 17 Sur 46 Sur 0 912.2 0.6 90
2019-04-24 09:00:00 4.2 14 Sur 28 Sur 0.2 912.4 0.8 94
2019-04-24 08:00:00 3.6 11 Sur 27 Sur 0 912.4 1.1 94
2019-04-24 07:00:00 3 10 Sur 22 Sur 0 911.6 0.5 95
2019-04-24 06:00:00 2.9 10 Sur 21 Sur 0 911.6 0.5 93
2019-04-24 05:00:00 3.8 14 Sudoeste 26 Sudoeste 0 911.3 0.4 89
2019-04-24 04:00:00 4.3 15 Sudoeste 31 Sudoeste 0 911.1 0.3 89
2019-04-24 03:00:00 4.3 13 Sudoeste 29 Sudoeste 0 911.1 0.7 89
2019-04-24 02:00:00 4.8 17 Sudoeste 30 Sudoeste 0 910.9 1.2 88
2019-04-24 01:00:00 5.1 13 Sudoeste 37 Sudoeste 0 910.8 2 90
2019-04-24 00:00:00 5.4 17 Sudoeste 36 Sudoeste 0 910.4 2.5 86
2019-04-23 23:00:00 5.9 16 Sudoeste 44 Oeste 1.2 909.7 2.5 87
2019-04-23 22:00:00 6.5 14 Sudoeste 31 Sudoeste 0 908.8 2 81
2019-04-23 21:00:00 7 14 Sudoeste 33 Oeste 0 907.9 1.8 76
2019-04-23 20:00:00 7.7 20 Sudoeste 41 Oeste 0 907.2 1.6 72
2019-04-23 19:00:00 9.1 28 Oeste 53 Oeste 0 906.8 1.1 67
2019-04-23 18:00:00 11.7 31 Sudoeste 59 Sudoeste 0 906.1 -0.1 54
2019-04-23 17:00:00 10.8 24 Sudoeste 45 Sudoeste 0 905.6 -0.6 59
2019-04-23 16:00:00 11.1 16 Sudoeste 33 Sudoeste 0 905.7 -0.1 64
2019-04-23 15:00:00 8.4 22 Oeste 34 Oeste 0 906.2 0.5 82
2019-04-23 14:00:00 8 14 Oeste 38 Sudoeste 0 906.2 0.8 85
2019-04-23 13:00:00 10.4 22 Sudoeste 39 Sudoeste 0 905.8 0.9 76
2019-04-23 12:00:00 9.3 21 Sudoeste 34 Sudoeste 0.2 905.7 1 86
2019-04-23 11:00:00 8.5 14 Sudoeste 42 Sudoeste 1.2 905.4 0.9 91
2019-04-23 10:00:00 9.4 13 Sur 37 Sur 0 904.9 0.3 85
2019-04-23 09:00:00 9.4 14 Sur 32 Sur 0 904.7 -0.1 87
2019-04-23 08:00:00 9.2 13 Sur 28 Sur 0 904.5 -0.8 90
2019-04-23 07:00:00 9.3 10 Sur 28 Sur 0 904.6 -0.8 89
2019-04-23 06:00:00 9.4 8 Sur 22 Sur 0 904.8 -1.2 87
2019-04-23 05:00:00 9.6 8 Sur 19 Sur 0 905.3 -1.2 86
2019-04-23 04:00:00 9.6 9 Sudoeste 24 Sur 0 905.4 -1.1 85
2019-04-23 03:00:00 9.7 8 Sur 23 Sur 0 906 -0.8 85
2019-04-23 02:00:00 10.3 10 Sur 21 Sur 0 906.5 -0.4 84
2019-04-23 01:00:00 10.7 10 Sur 25 Sudoeste 0 906.5 -0.5 82
2019-04-23 00:00:00 10.9 8 Sur 22 Sur 0 906.8 -0.1 77
2019-04-22 23:00:00 11.5 8 Sudeste 18 Sudeste 0 906.9 -0.2 75
2019-04-22 22:00:00 12.1 9 Sur 21 Sur 0 907 -0.5 72
2019-04-22 21:00:00 13.8 7 Sur 16 Sur 0 906.9 -0.5 63
2019-04-22 20:00:00 15.3 8 Sur 18 Sudoeste 0 907.1 -0.5 54
2019-04-22 19:00:00 15.8 10 Sudoeste 27 Oeste 0 907.5 -0.9 53
2019-04-22 18:00:00 15.6 14 Sudoeste 27 Sudoeste 0 907.4 -1.5 52
2019-04-22 17:00:00 17.4 10 Sudoeste 27 Sudoeste 0 907.6 -1.8 48
2019-04-22 16:00:00 17.1 11 Sudoeste 27 Oeste 0 908.4 -1.4 48
2019-04-22 15:00:00 16 13 Oeste 32 Oeste 0 908.9 -1.6 58
2019-04-22 14:00:00 14.1 11 Oeste 25 Oeste 0 909.4 -1.2 63
2019-04-22 13:00:00 12.9 13 Oeste 23 Oeste 0 909.8 -1 69
2019-04-22 12:00:00 11.3 7 Noroeste 15 Noroeste 0 910.5 -0.4 72
2019-04-22 11:00:00 10 6 Noroeste 16 Noroeste 0 910.6 -0.2 78
2019-04-22 10:00:00 8.8 4 Noroeste 10 Noroeste 0.2 910.8 -0.1 87
2019-04-22 09:00:00 8 2 Noroeste 5 Noroeste 0 910.9 -0.3 89
2019-04-22 08:00:00 7.6 0 Calma 6 Noroeste 0 910.8 -1.2 91
2019-04-22 07:00:00 7.3 4 Norte 14 Norte 0.2 910.9 -1.7 92
2019-04-22 06:00:00 7.6 4 Norte 6 Norte 0.2 911.2 -2.1 90
2019-04-22 05:00:00 8 0 Calma 8 Nordeste 0 912 -2 88
2019-04-22 04:00:00 8.2 5 Este 12 Este 0.4 912.6 -1.8 87
2019-04-22 03:00:00 8.5 6 Este 13 Nordeste 0 913.3 -1.4 84
2019-04-22 02:00:00 8.6 3 Este 10 Este 0 914 -1 80
2019-04-22 01:00:00 8.4 5 Norte 7 Norte 0 914.4 -0.6 81
2019-04-22 00:00:00 8.5 5 Norte 9 Norte 0 914.7 0 81
2019-04-21 23:00:00 9.2 5 Norte 11 Norte 0 915 0.2 77
2019-04-21 22:00:00 9.7 6 Norte 10 Norte 0 915 0 74
2019-04-21 21:00:00 10.5 5 Nordeste 15 Norte 0 914.7 -0.6 66
2019-04-21 20:00:00 11.2 8 Nordeste 19 Nordeste 0 914.8 -1 65
2019-04-21 19:00:00 11.2 10 Norte 20 Norte 0 915 -1.3 66
2019-04-21 18:00:00 11.6 7 Nordeste 23 Norte 0 915.3 -1.4 62
2019-04-21 17:00:00 10.7 14 Norte 24 Norte 0 915.8 -1.3 65
2019-04-21 16:00:00 10.3 14 Norte 27 Norte 0 916.3 -1.3 67
2019-04-21 15:00:00 10.3 15 Norte 27 Norte 0 916.7 -1.3 67
2019-04-21 14:00:00 10.4 12 Nordeste 28 Norte 0 917.1 -0.8 68
2019-04-21 13:00:00 9.9 15 Nordeste 28 Norte 0 917.6 -0.4 70
2019-04-21 12:00:00 10.2 16 Nordeste 28 Nordeste 0 918 -0.1 68
2019-04-21 11:00:00 9.2 15 Nordeste 26 Nordeste 0 917.9 -0.5 73
2019-04-21 10:00:00 7.4 10 Norte 24 Norte 0 918 -0.7 87
2019-04-21 09:00:00 6.2 10 Norte 19 Norte 0 918.1 -1 91
2019-04-21 08:00:00 5.7 12 Norte 23 Norte 0 918.4 -1.3 93
2019-04-21 07:00:00 5.6 10 Norte 17 Norte 0 918.7 -1.6 94
2019-04-21 06:00:00 5.7 9 Norte 22 Norte 0 919.1 -2.3 95
2019-04-21 05:00:00 6.2 12 Norte 32 Norte 0 919.7 -2.7 95
2019-04-21 04:00:00 6.5 20 Norte 33 Norte 0.4 920.3 -3 95
2019-04-21 03:00:00 6.7 13 Norte 23 Norte 0.6 921.4 -2.3 95
2019-04-21 02:00:00 7.2 9 Norte 22 Noroeste 0.2 922.4 -1.5 94
2019-04-21 01:00:00 7.3 13 Norte 22 Norte 0.6 923.3 -0.1 92
2019-04-21 00:00:00 8 7 Norte 19 Nordeste 1 923.7 0.7 89
2019-04-20 23:00:00 8.6 5 Nordeste 18 Sudeste 1.8 923.9 1.2 88
2019-04-20 22:00:00 8.7 11 Sudeste 23 Sudeste 0.6 923.4 0.9 88
2019-04-20 21:00:00 9.6 12 Sudeste 23 Sudeste 0 923 0.9 86
2019-04-20 20:00:00 10.5 8 Sudeste 20 Sudeste 0.4 922.7 0.9 83
2019-04-20 19:00:00 11.5 10 Sudeste 24 Este 0.4 922.5 0.7 75
2019-04-20 18:00:00 13.4 7 Este 17 Nordeste 0 922.1 0.2 65
2019-04-20 17:00:00 13.7 9 Nordeste 31 Nordeste 0 921.8 -0.1 60
2019-04-20 16:00:00 14.1 12 Nordeste 20 Nordeste 0 921.8 -0.3 54
2019-04-20 15:00:00 14 8 Nordeste 27 Nordeste 0 921.9 0 56
2019-04-20 14:00:00 14.4 14 Nordeste 36 Norte 0 921.9 0.5 53
2019-04-20 13:00:00 13.3 14 Norte 27 Nordeste 0 922.1 0.5 59
2019-04-20 12:00:00 12.5 14 Nordeste 30 Nordeste 0 921.9 1.1 58
2019-04-20 11:00:00 11.2 10 Nordeste 25 Nordeste 0 921.4 0.5 66
2019-04-20 10:00:00 10.1 8 Nordeste 23 Norte 0 921.6 0.5 71
2019-04-20 09:00:00 9.4 17 Norte 28 Nordeste 0 920.8 -0.2 75
2019-04-20 08:00:00 9 16 Nordeste 32 Norte 0 920.9 -1 77
2019-04-20 07:00:00 9 21 Norte 31 Norte 0 921.1 -1.1 78
2019-04-20 06:00:00 7.6 15 Norte 25 Norte 0 921 -2.5 90
2019-04-20 05:00:00 7.4 11 Norte 22 Norte 0 921.9 -2.5 95
2019-04-20 04:00:00 7.5 10 Noroeste 19 Noroeste 0 922.2 -2.3 95
2019-04-20 03:00:00 7.6 5 Norte 10 Norte 0 923.5 -0.9 95
2019-04-20 02:00:00 7.7 9 Norte 15 Norte 0 924.4 -0.2 95
2019-04-20 01:00:00 7.8 10 Norte 19 Noroeste 0 924.5 -0.2 95
2019-04-20 00:00:00 7.7 5 Norte 10 Noroeste 0 924.4 0.7 93
2019-04-19 23:00:00 7.9 4 Noroeste 9 Norte 0.2 924.6 1.8 93
2019-04-19 22:00:00 8 3 Norte 6 Noroeste 0.6 924.7 2.4 92
2019-04-19 21:00:00 8.2 5 Sudeste 9 Sudeste 0.6 923.7 1.5 91
2019-04-19 20:00:00 8.2 5 Nordeste 7 Nordeste 0.6 922.8 0.4 91
2019-04-19 19:00:00 8.2 3 Nordeste 7 Nordeste 1.4 922.3 -0.2 91
2019-04-19 18:00:00 7.9 4 Norte 10 Norte 2.4 922.2 -0.4 90
2019-04-19 17:00:00 8.2 4 Nordeste 16 Nordeste 2.4 922.4 0 90
2019-04-19 16:00:00 8.7 8 Nordeste 22 Nordeste 2.2 922.5 0.3 91
2019-04-19 15:00:00 8.9 11 Nordeste 23 Nordeste 2.2 922.6 0.5 91
2019-04-19 14:00:00 9.4 9 Nordeste 20 Nordeste 2 922.4 0.8 91
2019-04-19 13:00:00 9.6 12 Nordeste 19 Nordeste 0.4 922.2 0.8 88
2019-04-19 12:00:00 10.4 5 Este 17 Este 0 922.1 1 80
2019-04-19 11:00:00 9.9 8 Sudeste 20 Sudeste 0 921.6 1.1 84
2019-04-19 10:00:00 9.4 8 Este 17 Este 0 921.4 1.5 87
2019-04-19 09:00:00 8.9 8 Este 17 Este 0 921.1 1.6 89
2019-04-19 08:00:00 8.3 7 Sudeste 15 Este 0 920.5 1.1 91
2019-04-19 07:00:00 8 9 Este 16 Sudeste 0 919.9 0.9 91
2019-04-19 06:00:00 7.9 9 Sudeste 17 Sudeste 0 919.5 0.2 92
2019-04-19 05:00:00 7.8 9 Sudeste 21 Sudeste 0 919.4 -0.2 91
2019-04-19 04:00:00 8 11 Sudeste 27 Sudeste 0 919 -0.3 89
2019-04-19 03:00:00 8.1 10 Sudeste 17 Sudeste 0 919.3 0.3 89
2019-04-19 02:00:00 8.3 11 Sudeste 17 Sudeste 0 919.6 0.6 89
2019-04-19 01:00:00 8.6 8 Sudeste 15 Sudeste 0 919.3 0.7 90
2019-04-19 00:00:00 8.7 8 Sudeste 17 Sudeste 0 919 1.1 89
2019-04-18 23:00:00 8.8 12 Sudeste 22 Este 0 919 1.5 89
2019-04-18 22:00:00 9.4 11 Este 20 Este 0.6 918.6 1 90
2019-04-18 21:00:00 9.8 10 Este 21 Este 0.8 917.9 0.7 88
2019-04-18 20:00:00 10.1 8 Nordeste 17 Nordeste 0 917.5 0.1 84
2019-04-18 19:00:00 10.4 9 Nordeste 21 Norte 0 917.6 -0.3 80
2019-04-18 18:00:00 10.6 9 Nordeste 17 Nordeste 0 917.2 -1.4 77
2019-04-18 17:00:00 11.5 7 Nordeste 25 Nordeste 0 917.4 -1.5 73
2019-04-18 16:00:00 10.6 8 Nordeste 24 Nordeste 0.4 917.9 -1.8 84
2019-04-18 15:00:00 10.1 9 Este 18 Este 0.6 918.6 -1.7 87
2019-04-18 14:00:00 9.7 4 Sudeste 17 Sudeste 1 918.9 -1.5 88
2019-04-18 13:00:00 9.2 8 Sur 15 Sudeste 0.6 919.7 0 86
2019-04-18 12:00:00 9.2 4 Noroeste 10 Norte 10 920.3 1 91
2019-04-18 11:00:00 8.8 6 Nordeste 9 Nordeste 1.4 920.4 1.3 93
2019-04-18 10:00:00 8.6 6 Nordeste 13 Norte 1.8 919.7 0.4 94
2019-04-18 09:00:00 8.8 2 Sudeste 14 Sudoeste 2.2 919.3 0.8 91
2019-04-18 08:00:00 8.6 5 Sudoeste 25 Oeste 3.2 919.1 0.3 92
2019-04-18 07:00:00 9.3 15 Sur 37 Sudeste 3.8 919.3 -0.5 92
2019-04-18 06:00:00 9.5 19 Sudeste 43 Este 4.6 918.5 -1.8 91
2019-04-18 05:00:00 9.3 22 Sudeste 43 Este 1.6 918.8 -1.8 89
2019-04-18 04:00:00 10 19 Sudeste 35 Sudeste 1 919.8 -0.9 88
2019-04-18 03:00:00 10.5 13 Sudeste 35 Sudeste 1.6 920.3 0.5 86
2019-04-18 02:00:00 11.3 18 Sudeste 35 Sudeste 0 920.6 0.5 78
2019-04-18 01:00:00 11.9 19 Sudeste 37 Sudeste 0 920.7 2.6 76
2019-04-18 00:00:00 12.3 16 Sudeste 32 Sudeste 0.2 919.8 2 77
2019-04-17 23:00:00 13.6 15 Sudeste 39 Sudeste 0 920.1 3.6 69
2019-04-17 22:00:00 15.3 23 Sudeste 48 Sur 0 918.1 2.2 64
2019-04-17 21:00:00 17 20 Sudeste 44 Sudeste 0 917.8 2.2 60
2019-04-17 20:00:00 19.2 23 Sudeste 65 Sudeste 0 916.5 0.2 43
2019-04-17 19:00:00 21.2 35 Sudeste 62 Sudeste 0 915.9 -0.9 34
2019-04-17 18:00:00 22.2 37 Sudeste 61 Sudeste 0 915.6 -2.1 31
2019-04-17 17:00:00 23 29 Sudeste 58 Sudeste 0 916.3 -2.5 31
2019-04-17 16:00:00 22.9 30 Sudeste 56 Sudeste 0 916.8 -2.6 31
2019-04-17 15:00:00 22.6 28 Sudeste 51 Sudeste 0 917.7 -2.1 31
2019-04-17 14:00:00 21 21 Sudeste 45 Sudeste 0 918.8 -0.4 37
2019-04-17 13:00:00 18.6 25 Sudeste 46 Sudeste 0 919.4 -0.2 44
2019-04-17 12:00:00 15.2 31 Sudeste 59 Sudeste 0 919.8 -0.4 53
2019-04-17 11:00:00 13.5 32 Sudeste 58 Sudeste 0 919.2 -0.8 59
2019-04-17 10:00:00 11.6 31 Sudeste 61 Sudeste 0 919.6 -0.4 69
2019-04-17 09:00:00 9.9 29 Sudeste 49 Sudeste 0 920.2 -0.1 77
2019-04-17 08:00:00 8.7 29 Sudeste 60 Este 0 920 -0.6 82
2019-04-17 07:00:00 8.6 26 Sudeste 54 Sudeste 0 920 -0.8 82
2019-04-17 06:00:00 8.7 27 Sudeste 53 Sudeste 0 920.3 -1.2 81
2019-04-17 05:00:00 9.4 29 Sudeste 53 Sudeste 0 920.6 -1.4 76
2019-04-17 04:00:00 10.2 32 Sudeste 54 Sudeste 0 920.8 -0.8 70
2019-04-17 03:00:00 10.6 29 Sudeste 56 Sudeste 0 921.5 0.1 67
2019-04-17 02:00:00 11.1 28 Sudeste 64 Sudeste 0 922 0.4 66
2019-04-17 01:00:00 11.7 30 Sudeste 60 Sudeste 0 921.6 0.4 65
2019-04-17 00:00:00 12.9 29 Sudeste 54 Sudeste 0 921.4 0.4 60
2019-04-16 23:00:00 14.7 28 Sudeste 49 Sudeste 0 921.6 0.7 58
2019-04-16 22:00:00 16.5 9 Sudeste 19 Sudeste 0 921.2 0.1 32
2019-04-16 21:00:00 18.4 8 Sudeste 23 Sudeste 0 921 -0.8 27
2019-04-16 20:00:00 20.9 12 Sudeste 25 Sudeste 0 920.9 -1.6 22
2019-04-16 19:00:00 23.3 10 Sudeste 26 Sudeste 0 921.1 -2.1 18
2019-04-16 18:00:00 23.1 12 Sudeste 24 Sur 0 921.8 -1.8 20
2019-04-16 17:00:00 23 9 Sudeste 24 Sudeste 0 922.5 -1.5 22
2019-04-16 16:00:00 22.3 12 Sudeste 23 Sudoeste 0 923.2 -1.4 23
2019-04-16 15:00:00 20.7 7 Sudeste 24 Sudoeste 0 923.6 -1.2 28
2019-04-16 14:00:00 19.3 6 Sur 22 Sudeste 0 924 -0.9 32
2019-04-16 13:00:00 17.4 7 Sur 19 Este 0 924.6 -0.1 36
2019-04-16 12:00:00 14.9 6 Este 21 Nordeste 0 924.8 0.3 42
2019-04-16 11:00:00 13 8 Este 21 Este 0 924.9 0.8 55
2019-04-16 10:00:00 11 8 Nordeste 14 Nordeste 0 924.7 0.8 65
2019-04-16 09:00:00 8.9 3 Norte 7 Nordeste 0 924.5 0.9 83
2019-04-16 08:00:00 7.9 4 Nordeste 8 Norte 0 924.1 0.1 84
2019-04-16 07:00:00 7.9 3 Norte 9 Norte 0 923.9 0.6 81
2019-04-16 06:00:00 8.5 5 Noroeste 23 Oeste 0 923.6 0.3 78
2019-04-16 05:00:00 9.1 12 Oeste 25 Noroeste 0 924 0.6 76
2019-04-16 04:00:00 9.3 7 Oeste 17 Oeste 0 923.3 0.4 75
2019-04-16 03:00:00 9.3 8 Oeste 20 Oeste 0 923.3 0.6 77
2019-04-16 02:00:00 10 11 Oeste 32 Oeste 0 923.4 1.6 75
2019-04-16 01:00:00 11 10 Oeste 31 Oeste 0 922.9 2.2 67
2019-04-16 00:00:00 12.2 15 Oeste 34 Oeste 0 922.7 3.6 61
2019-04-15 23:00:00 13.4 17 Oeste 50 Oeste 0 921.8 3.4 58
2019-04-15 22:00:00 14 21 Oeste 52 Oeste 0 920.7 2.8 56
2019-04-15 21:00:00 17.7 21 Oeste 55 Oeste 0 919.1 1.5 40
2019-04-15 20:00:00 20.4 27 Oeste 50 Oeste 0 918.4 0.6 22
2019-04-15 19:00:00 22.1 29 Sudoeste 59 Sudoeste 0 917.9 -0.5 26
2019-04-15 18:00:00 24.5 32 Sudoeste 57 Oeste 0 917.6 -1.1 20
2019-04-15 17:00:00 23.5 23 Sudoeste 48 Sudoeste 0 917.8 -1.5 24
2019-04-15 16:00:00 24.6 26 Sudoeste 57 Sudoeste 0 918.4 -1.7 27
2019-04-15 15:00:00 23.6 16 Sur 42 Sudoeste 0 918.7 -1.7 31
2019-04-15 14:00:00 21.6 15 Sur 37 Sudeste 0 919.3 -0.9 38
2019-04-15 13:00:00 20.3 14 Sur 29 Sudeste 0 920.1 -0.2 48
2019-04-15 12:00:00 20 10 Sur 25 Sur 0 920.4 -0.5 51
2019-04-15 11:00:00 17.9 12 Sur 23 Sudeste 0 920.2 -0.5 59
2019-04-15 10:00:00 14.6 9 Sudeste 18 Sudeste 0 920.3 -0.5 71
2019-04-15 09:00:00 12.6 10 Sudeste 18 Sudeste 0 920.9 0.2 73
2019-04-15 08:00:00 11.6 8 Sudeste 15 Sudeste 0 920.7 -0.5 75
2019-04-15 07:00:00 12.1 8 Sudeste 15 Sudeste 0 920.8 -0.9 73
2019-04-15 06:00:00 12.2 10 Sudeste 17 Sudeste 0 920.7 -1.2 71
2019-04-15 05:00:00 13.4 9 Sudeste 13 Sudeste 0 921.2 -1.1 69
2019-04-15 04:00:00 13.5 4 Sudeste 8 Este 0 921.7 -1 67
2019-04-15 03:00:00 14 4 Sudeste 7 Sudeste 0 921.9 -0.7 66
2019-04-15 02:00:00 14.8 4 Sudoeste 11 Sudoeste 0 922.3 -0.3 64
2019-04-15 01:00:00 15 4 Sur 10 Sur 0 922.7 0.3 59
2019-04-15 00:00:00 15.8 6 Sudoeste 14 Oeste 0 922.6 0.5 57
2019-04-14 23:00:00 16.9 7 Sudoeste 12 Oeste 0 922.6 0.9 51
2019-04-14 22:00:00 18.1 4 Noroeste 8 Noroeste 0 922.4 0.8 45
2019-04-14 21:00:00 19.7 4 Noroeste 15 Noroeste 0 922.1 0.4 40
2019-04-14 20:00:00 21.9 7 Oeste 20 Sudoeste 0 921.7 -0.4 33
2019-04-14 19:00:00 23.7 10 Oeste 23 Oeste 0 921.6 -1.2 29
2019-04-14 18:00:00 24.5 9 Sudoeste 27 Sudoeste 0 921.7 -1.6 29
2019-04-14 17:00:00 23.5 8 Noroeste 25 Oeste 0 922.1 -1.5 31
2019-04-14 16:00:00 23.3 10 Oeste 30 Oeste 0 922.8 -1.2 34
2019-04-14 15:00:00 21.9 13 Sudoeste 27 Oeste 0 923.3 -0.9 35
2019-04-14 14:00:00 20.4 11 Oeste 24 Sudoeste 0 923.6 -0.6 40
2019-04-14 13:00:00 19.1 7 Sudoeste 20 Oeste 0 924 -0.3 43
2019-04-14 12:00:00 16.7 5 Oeste 15 Sudoeste 0 924.2 0.2 53
2019-04-14 11:00:00 14.3 4 Oeste 12 Noroeste 0 924.2 0.4 66
2019-04-14 10:00:00 12.2 6 Noroeste 12 Oeste 0 924.3 0.9 74
2019-04-14 09:00:00 9.7 4 Sur 10 Sudeste 0 924 0.4 72
2019-04-14 08:00:00 8.6 4 Sur 10 Sudeste 0 923.8 0 69
2019-04-14 07:00:00 10.1 4 Sur 13 Sudoeste 0 923.4 -0.6 67
2019-04-14 06:00:00 11 8 Noroeste 24 Oeste 0 923.6 -0.2 63
2019-04-14 05:00:00 11.2 11 Oeste 23 Oeste 0 923.8 -0.4 56
2019-04-14 04:00:00 11 5 Noroeste 14 Noroeste 0 924 -0.4 49
2019-04-14 03:00:00 11.5 13 Oeste 30 Oeste 0 923.8 -0.8 44
2019-04-14 02:00:00 11.1 15 Sudoeste 24 Sudoeste 0 924.2 -0.3 39
2019-04-14 01:00:00 12.3 9 Oeste 23 Oeste 0 924.4 0 31
2019-04-14 00:00:00 13.3 10 Oeste 20 Oeste 0 924.6 0.9 23
2019-04-13 23:00:00 13.2 6 Sudoeste 11 Sudoeste 0 924.5 1 20
2019-04-13 22:00:00 14.2 7 Sudoeste 11 Oeste 0 924.4 1.1 16
2019-04-13 21:00:00 15.9 7 Oeste 20 Noroeste 0 923.7 0.3 14
2019-04-13 20:00:00 19.2 8 Oeste 19 Noroeste 0 923.5 -0.1 12
2019-04-13 19:00:00 21.3 8 Oeste 19 Noroeste 0 923.3 -0.6 11
2019-04-13 18:00:00 21 6 Noroeste 22 Norte 0 923.4 -1 10
2019-04-13 17:00:00 20.7 8 Norte 18 Noroeste 0 923.6 -1.1 11
2019-04-13 16:00:00 19.2 5 Norte 16 Noroeste 0 923.9 -1.3 13
2019-04-13 15:00:00 17.8 3 Norte 17 Noroeste 0 924.4 -1.1 13
2019-04-13 14:00:00 16.9 5 Este 24 Oeste 0 924.7 -0.6 17
2019-04-13 13:00:00 15.1 5 Noroeste 17 Noroeste 0 925.2 0.1 18
2019-04-13 12:00:00 13.1 6 Norte 16 Noroeste 0 925.5 0.8 27
2019-04-13 11:00:00 10.8 3 Noroeste 14 Norte 0 925.3 0.9 33
2019-04-13 10:00:00 8.6 5 Norte 10 Norte 0 925.1 1.3 48
2019-04-13 09:00:00 6.5 3 Norte 7 Noroeste 0 924.7 1.2 54
2019-04-13 08:00:00 4.5 4 Oeste 9 Sudoeste 0 924.4 0.8 62
2019-04-13 07:00:00 6.2 3 Norte 8 Nordeste 0 923.8 0.1 53
2019-04-13 06:00:00 5.6 2 Norte 6 Norte 0 923.5 -0.4 58
2019-04-13 05:00:00 6.9 4 Norte 8 Noroeste 0 923.6 -0.4 52
2019-04-13 04:00:00 7.3 4 Noroeste 9 Noroeste 0 923.7 -0.3 52
2019-04-13 03:00:00 8.1 4 Norte 8 Norte 0 923.9 0.1 50
2019-04-13 02:00:00 8.9 6 Norte 10 Norte 0 924 0.5 47
2019-04-13 01:00:00 9.8 5 Noroeste 9 Norte 0 924 1.1 44
2019-04-13 00:00:00 10.4 4 Noroeste 12 Norte 0 923.8 1.4 41
2019-04-12 23:00:00 11.1 5 Noroeste 16 Noroeste 0 923.5 1.1 39
2019-04-12 22:00:00 12.6 0 Calma 6 Oeste 0 922.9 0.6 34
2019-04-12 21:00:00 13.9 4 Oeste 19 Noroeste 0 922.4 0 34
2019-04-12 20:00:00 15.7 9 Noroeste 26 Norte 0 922.4 -0.1 26
2019-04-12 19:00:00 17.1 9 Norte 27 Noroeste 0 922.3 -1 24
2019-04-12 18:00:00 16.9 11 Norte 30 Noroeste 0 922.4 -1.2 25
2019-04-12 17:00:00 16.1 10 Norte 35 Noroeste 0 922.5 -1.1 26
2019-04-12 16:00:00 16.4 11 Noroeste 35 Noroeste 0 923.3 -0.7 28
2019-04-12 15:00:00 15.4 12 Noroeste 36 Noroeste 0 923.6 -0.8 29
2019-04-12 14:00:00 14.5 12 Noroeste 30 Noroeste 0 923.6 -0.9 34
2019-04-12 13:00:00 12.2 12 Noroeste 31 Noroeste 0 924 -0.3 42
2019-04-12 12:00:00 10.1 13 Norte 26 Norte 0 924.4 0.2 48
2019-04-12 11:00:00 7.6 13 Norte 28 Noroeste 0 924.5 0.4 61
2019-04-12 10:00:00 6 5 Noroeste 15 Norte 0 924.3 0.5 68
2019-04-12 09:00:00 4.3 7 Norte 13 Norte 0 924.2 0.7 76
2019-04-12 08:00:00 3.4 5 Norte 12 Norte 0 924.1 0.4 76
2019-04-12 07:00:00 3.9 8 Norte 11 Norte 0 923.8 0 73
2019-04-12 06:00:00 4.5 10 Norte 17 Nordeste 0 923.5 -0.6 71
2019-04-12 05:00:00 5.5 12 Nordeste 29 Nordeste 0 923.7 -0.6 67
2019-04-12 04:00:00 5.1 8 Norte 16 Norte 0 923.8 -0.6 70
2019-04-12 03:00:00 5.3 6 Norte 12 Norte 0 924.1 -0.1 68
2019-04-12 02:00:00 6 7 Norte 14 Norte 0 924.3 0.3 62
2019-04-12 01:00:00 6.7 9 Norte 16 Norte 0 924.4 0.7 59
2019-04-12 00:00:00 7.2 8 Norte 14 Norte 0 924.2 1.2 55
2019-04-11 23:00:00 8 8 Norte 14 Norte 0 924 1.4 51
2019-04-11 22:00:00 9.3 8 Norte 22 Norte 0 923.7 1.1 46
2019-04-11 21:00:00 10.8 12 Norte 30 Noroeste 0 923 0.6 40
2019-04-11 20:00:00 12.8 15 Noroeste 39 Norte 0 922.6 0.1 33
2019-04-11 19:00:00 13 21 Norte 40 Norte 0 922.6 -0.2 36
2019-04-11 18:00:00 14.2 18 Noroeste 42 Norte 0 922.4 -0.6 30
2019-04-11 17:00:00 13.6 14 Noroeste 37 Noroeste 0 922.5 -0.9 30
2019-04-11 16:00:00 14.2 18 Noroeste 45 Norte 0 922.8 -1.1 30
2019-04-11 15:00:00 13.7 13 Noroeste 39 Nordeste 0 923 -1.1 37
2019-04-11 14:00:00 12 15 Norte 44 Norte 0 923.4 -0.9 41
2019-04-11 13:00:00 10.5 13 Norte 31 Noroeste 0 923.9 0 53
2019-04-11 12:00:00 9 10 Noroeste 28 Noroeste 0 924.1 0.4 59
2019-04-11 11:00:00 6.7 11 Norte 22 Norte 0 924.3 1 68
2019-04-11 10:00:00 5.6 8 Norte 16 Norte 0 923.9 1 73
2019-04-11 09:00:00 3.9 5 Noroeste 9 Norte 0 923.7 1.1 82
2019-04-11 08:00:00 2.6 3 Noroeste 7 Norte 0 923.3 0.7 84
2019-04-11 07:00:00 2.9 4 Noroeste 9 Norte 0 922.9 0.6 84
2019-04-11 06:00:00 3.5 5 Norte 15 Norte 0 922.6 0.3 82
2019-04-11 05:00:00 4.1 5 Noroeste 15 Norte 0 922.6 0 82
2019-04-11 04:00:00 4.9 11 Norte 17 Norte 0 922.3 -0.1 76
2019-04-11 03:00:00 5.4 9 Norte 16 Norte 0 922.3 0.4 74
2019-04-11 02:00:00 5.7 6 Norte 16 Norte 0 922.6 0.7 77
2019-04-11 01:00:00 6.4 4 Noroeste 12 Norte 0 922.4 1.2 75
2019-04-11 00:00:00 8.1 7 Nordeste 22 Noroeste 0 921.9 1.8 68
2019-04-10 23:00:00 8.1 7 Noroeste 22 Norte 0 921.9 2.4 71
2019-04-10 22:00:00 9.2 4 Nordeste 13 Nordeste 0 921.2 2.2 57
2019-04-10 21:00:00 10 9 Nordeste 20 Nordeste 0 920.1 1.4 53
2019-04-10 20:00:00 11.1 11 Norte 31 Norte 0 919.5 0.4 50
2019-04-10 19:00:00 13.2 12 Norte 28 Norte 0 919 0 42
2019-04-10 18:00:00 13.2 10 Noroeste 35 Norte 0 918.7 -0.5 42
2019-04-10 17:00:00 10.6 19 Norte 37 Norte 0 919.1 -0.2 51
2019-04-10 16:00:00 14.1 18 Oeste 45 Noroeste 0 919 -0.7 43
2019-04-10 15:00:00 12.7 15 Oeste 44 Oeste 0 919.2 -0.8 47
2019-04-10 14:00:00 10.8 16 Oeste 35 Noroeste 0 919.3 -1 51
2019-04-10 13:00:00 11.6 18 Noroeste 41 Oeste -- 919.7 -0.3 46
2019-04-10 12:00:00 10 17 Oeste -- -- -- 920 0.3 59
2019-04-10 11:00:00 8 13 Oeste 30 Noroeste 0 920.3 0.9 75
2019-04-10 10:00:00 5.5 8 Oeste 23 Oeste 0 920 1 84
2019-04-10 09:00:00 4.2 13 Oeste 23 Oeste 0 919.7 0.6 91
2019-04-10 08:00:00 3.5 7 Sudoeste 20 Oeste 0 919.4 0 91
2019-04-10 07:00:00 4.2 10 Oeste 24 Oeste 0 919 -0.3 88
2019-04-10 06:00:00 4.4 10 Oeste 24 Oeste 0 919.1 -0.3 90
2019-04-10 05:00:00 5.1 12 Oeste 26 Oeste 0 919.4 -0.1 87
2019-04-10 04:00:00 5.6 13 Oeste 23 Oeste 0 919.3 -0.5 80
2019-04-10 03:00:00 5.4 10 Oeste 19 Oeste 0 919.4 -0.1 80
2019-04-10 02:00:00 5.5 11 Oeste 28 Oeste 0 919.5 -0.1 82
2019-04-10 01:00:00 6.7 14 Oeste 29 Noroeste 0 919.8 0.7 77
2019-04-10 00:00:00 6.8 9 Oeste 22 Oeste 0 919.5 1 74
2019-04-09 23:00:00 6.9 9 Oeste 24 Oeste 0 919.6 1.4 76
2019-04-09 22:00:00 7.9 13 Oeste 38 Oeste 0 919.1 0.8 71
2019-04-09 21:00:00 8.6 18 Oeste 37 Oeste 0 918.5 0.7 70
2019-04-09 20:00:00 8.6 12 Oeste 31 Oeste 0 918.2 0.3 74
2019-04-09 19:00:00 6.7 11 Oeste 35 Noroeste 0 918.3 0.2 80
2019-04-09 18:00:00 9.6 19 Oeste 46 Sudoeste 0 917.8 -0.5 63
2019-04-09 17:00:00 10 14 Noroeste 53 Oeste 0 917.9 -0.9 61
2019-04-09 16:00:00 10.5 32 Oeste 52 Oeste 0 918.1 -1.2 63
2019-04-09 15:00:00 10.9 19 Oeste 42 Oeste 0 918.3 -1.5 71
2019-04-09 14:00:00 8.9 15 Oeste 38 Sudoeste 0 918.8 -1.1 77
2019-04-09 13:00:00 10.1 18 Oeste 39 Oeste 0 919.3 -0.8 60
2019-04-09 12:00:00 8.3 22 Oeste 40 Oeste 0 919.8 -0.4 73
2019-04-09 11:00:00 8.3 27 Oeste 42 Oeste 0 919.9 -0.1 70
2019-04-09 10:00:00 7 18 Oeste 32 Oeste 0 920.1 0.2 81
2019-04-09 09:00:00 6 14 Sudoeste 27 Oeste 0 920.2 0.5 84
2019-04-09 08:00:00 5.7 17 Oeste 36 Sudoeste 0 920 0.2 86
2019-04-09 07:00:00 5.9 24 Oeste 42 Oeste 0 919.9 0.3 86
2019-04-09 06:00:00 5.9 19 Oeste 45 Oeste 0 919.7 0 85
2019-04-09 05:00:00 5.9 20 Oeste 37 Oeste 0 919.8 0 85
2019-04-09 04:00:00 6.7 18 Oeste 36 Oeste 0 919.6 0 80
2019-04-09 03:00:00 7.1 10 Oeste 23 Oeste 0 919.7 0.4 75
2019-04-09 02:00:00 7.2 6 Oeste 25 Noroeste 0 919.8 0.9 73
2019-04-09 01:00:00 7.9 8 Noroeste 30 Noroeste 0 919.6 1.1 68
2019-04-09 00:00:00 9 19 Oeste 35 Oeste 0 919.3 1.2 59
2019-04-08 23:00:00 10.5 14 Oeste 28 Oeste 0 918.9 1.2 55
2019-04-08 22:00:00 10.8 15 Oeste 26 Oeste 0 918.5 0.8 52
2019-04-08 21:00:00 12.2 15 Oeste 27 Oeste 0 918.1 0.2 48
2019-04-08 20:00:00 13.8 14 Oeste 34 Oeste 0 917.7 -0.6 44
2019-04-08 19:00:00 14.8 15 Oeste 37 Oeste 0 917.7 -1 45
2019-04-08 18:00:00 16.2 17 Oeste 36 Oeste 0 917.9 -1.2 44
2019-04-08 17:00:00 15.5 17 Oeste 41 Oeste 0 918.3 -1.3 46
2019-04-08 16:00:00 15.5 18 Oeste 39 Oeste 0 918.7 -1 51
2019-04-08 15:00:00 15 24 Oeste 50 Sudoeste 0 919.1 -0.6 50
2019-04-08 14:00:00 12.2 17 Oeste 39 Sudoeste 0 919.6 0 66
2019-04-08 13:00:00 12.1 20 Oeste 34 Oeste 0 919.7 0 71
2019-04-08 12:00:00 10.9 21 Sudoeste 36 Sudoeste 0 919.7 0.1 85
2019-04-08 11:00:00 9.2 20 Sudoeste 34 Sudoeste 0 919.6 0.7 92
2019-04-08 10:00:00 8.4 12 Sudoeste 23 Sudoeste 0 919.7 1 94
2019-04-08 09:00:00 8.2 12 Sudoeste 19 Sudoeste 0 919.6 0.8 95
2019-04-08 08:00:00 8 15 Sudoeste 23 Sudoeste 0 918.9 0 95
2019-04-08 07:00:00 7.9 8 Sur 16 Sur 0 918.7 -0.2 94
2019-04-08 06:00:00 7.8 7 Sudoeste 19 Sudoeste 0 918.8 -0.5 95
2019-04-08 05:00:00 7.7 11 Sudoeste 22 Sudoeste 0 918.9 -0.7 95
2019-04-08 04:00:00 7.9 13 Sudoeste 25 Sudoeste 0 918.9 -0.9 94
2019-04-08 03:00:00 7.9 12 Sudoeste 23 Sudoeste 0 919.3 -0.8 93
2019-04-08 02:00:00 7.5 9 Sudeste 21 Sudeste 0 919.6 -0.7 91
2019-04-08 01:00:00 7.5 10 Sur 19 Sudeste 0 919.8 -0.5 88
2019-04-08 00:00:00 7.6 8 Sudeste 12 Sudeste 0 920.1 0 88
2019-04-07 23:00:00 7.8 4 Sudeste 7 Sudeste 0 920.3 0.7 86
2019-04-07 22:00:00 7.5 3 Sudoeste 13 Oeste 0 920.3 1.2 84
2019-04-07 21:00:00 8.2 6 Oeste 19 Oeste 0 920.1 1.6 78
2019-04-07 20:00:00 9.1 13 Oeste 29 Oeste 0 919.6 1.2 67
2019-04-07 19:00:00 10.2 11 Oeste 42 Oeste 0 919.1 0.7 55
2019-04-07 18:00:00 11.3 22 Oeste 38 Oeste 0 918.5 0.1 47
2019-04-07 17:00:00 11.8 17 Oeste 34 Oeste 0 918.4 0.4 48
2019-04-07 16:00:00 11.4 14 Oeste 33 Oeste 0 918.4 0.5 42
2019-04-07 15:00:00 10.7 18 Oeste 35 Oeste 0 918.4 0.8 47
2019-04-07 14:00:00 10.8 15 Oeste 40 Oeste 0 918 1.1 46
2019-04-07 13:00:00 9.9 17 Noroeste 38 Noroeste 0 917.9 1.6 47
2019-04-07 12:00:00 8.1 15 Oeste 38 Oeste 0 917.6 2 61
2019-04-07 11:00:00 6.9 18 Oeste 41 Noroeste 0 916.9 2.2 70
2019-04-07 10:00:00 5 18 Oeste 43 Oeste 0 916.3 2.4 83
2019-04-07 09:00:00 3.6 21 Oeste 50 Oeste 0 915.6 2.2 92
2019-04-07 08:00:00 3.5 15 Oeste 39 Oeste 0 914.7 1.6 92
2019-04-07 07:00:00 3.6 16 Oeste 39 Oeste 0 913.9 0.9 92
2019-04-07 06:00:00 3.9 15 Oeste 49 Oeste 0 913.4 0.5 90
2019-04-07 05:00:00 3.9 24 Oeste 45 Oeste 0 913.1 0.3 89
2019-04-07 04:00:00 4.1 18 Oeste 48 Oeste 0 913 0.1 86
2019-04-07 03:00:00 4.2 23 Oeste 38 Oeste 0 912.9 0.3 84
2019-04-07 02:00:00 4.4 22 Oeste 44 Oeste 0 912.8 0.5 83
2019-04-07 01:00:00 3.8 17 Oeste 32 Oeste 0 912.9 1.2 85
2019-04-07 00:00:00 4.2 20 Oeste 38 Oeste 0 912.6 1.7 82
2019-04-06 23:00:00 4.6 23 Oeste 38 Oeste 0 912.3 2.2 80
2019-04-06 22:00:00 5.3 19 Oeste 41 Oeste 0 911.7 2.1 74
2019-04-06 21:00:00 6.3 17 Oeste 47 Oeste 0 910.9 1.9 65
2019-04-06 20:00:00 7.6 28 Oeste 56 Oeste 0 910.1 0.8 65
2019-04-06 19:00:00 8.7 32 Oeste 55 Sudoeste 0 909.6 0.1 54
2019-04-06 18:00:00 9.3 35 Oeste 63 Oeste 0 909 -0.7 54
2019-04-06 17:00:00 9.5 30 Oeste 55 Oeste 0 909.3 -0.8 60
2019-04-06 16:00:00 8.6 26 Oeste 53 Sudoeste 0 909.5 -0.6 64
2019-04-06 15:00:00 7.2 25 Oeste 51 Oeste 0 909.7 -0.9 78
2019-04-06 14:00:00 4.7 15 Sudoeste 55 Oeste 0 910.1 -0.3 92
2019-04-06 13:00:00 5.5 20 Sudoeste 44 Sudoeste 0 910.1 -0.3 86
2019-04-06 12:00:00 5.6 19 Sudoeste 35 Sudoeste 0 910.6 0.3 84
2019-04-06 11:00:00 5 17 Sudoeste 28 Sudoeste 0 910.4 0.5 84
2019-04-06 10:00:00 3.9 18 Sudoeste 33 Sudoeste 0 910.4 1.1 88
2019-04-06 09:00:00 3.1 19 Sudoeste 37 Oeste 0 910.3 1.4 92
2019-04-06 08:00:00 2.5 20 Oeste 37 Oeste 0 909.9 1.1 92
2019-04-06 07:00:00 2.2 16 Oeste 36 Oeste 0 909.3 0.6 91
2019-04-06 06:00:00 2.7 21 Oeste 37 Oeste 0 908.9 0 91
2019-04-06 05:00:00 2.9 18 Oeste 41 Oeste 0 908.8 -0.2 90
2019-04-06 04:00:00 3 19 Oeste 37 Oeste 0 908.7 -0.3 93
2019-04-06 03:00:00 3.1 17 Sudoeste 26 Sudoeste 0 908.9 0.2 90
2019-04-06 02:00:00 3 8 Sudoeste 13 Sudoeste 0 909 0.5 89
2019-04-06 01:00:00 2.6 4 Sudoeste 16 Sudoeste 0 909 1.2 90
2019-04-06 00:00:00 2.6 10 Sudoeste 23 Sudoeste 0 908.7 1.7 89
2019-04-05 23:00:00 3 9 Sudoeste 19 Sudoeste 0 908.5 2 87
2019-04-05 22:00:00 3.1 10 Sudoeste 20 Sudoeste 0 907.8 2.2 89
2019-04-05 21:00:00 3.7 14 Oeste 33 Oeste 0 907 1.6 85
2019-04-05 20:00:00 4.1 15 Oeste 60 Oeste 0 906.5 1.3 85
2019-04-05 19:00:00 6.8 30 Sudoeste 47 Oeste 0 905.6 -0.1 77
2019-04-05 18:00:00 3.7 18 Oeste 58 Sudoeste 0 905.4 -0.7 91
2019-04-05 17:00:00 7.6 11 Sur 23 Sudoeste 0 905.2 -1.1 82
2019-04-05 16:00:00 6.5 14 Sudoeste 38 Sudoeste 0 905.7 -1.3 88
2019-04-05 15:00:00 6.9 15 Sur 40 Sudoeste 0 906.1 -1.1 88
2019-04-05 14:00:00 6.2 17 Sudoeste 37 Sudoeste 0 906.3 -0.7 89
2019-04-05 13:00:00 5.1 19 Sudoeste 42 Sudoeste 0 907 0.5 91
2019-04-05 12:00:00 5.6 17 Sudoeste 41 Sudoeste 0 907.2 0.2 89
2019-04-05 11:00:00 6.6 14 Sur 33 Sur 0 907 -0.1 78
2019-04-05 10:00:00 6.5 15 Sudeste 33 Sur 0 906.5 -0.6 79
2019-04-05 09:00:00 5.8 10 Sur 24 Sur 0 907 -0.3 83
2019-04-05 08:00:00 6.1 9 Sudeste 17 Sudeste 0 907.1 -0.3 79
2019-04-05 07:00:00 6.1 5 Sur 10 Noroeste 0 907.1 -0.5 77
2019-04-05 06:00:00 6.2 6 Oeste 19 Sudoeste 0 907.3 0 72
2019-04-05 05:00:00 6.5 15 Oeste 31 Oeste 0 907.4 0 70
2019-04-05 04:00:00 7.5 12 Oeste 31 Oeste 0 907.6 0.2 56
2019-04-05 03:00:00 8.6 16 Sudoeste 28 Oeste 0 907.3 -0.3 38
2019-04-05 02:00:00 8.6 6 Sur 15 Sur 0 907.4 -0.3 42
2019-04-05 01:00:00 8.2 7 Sur 13 Sur 0 907.4 0.1 42
2019-04-05 00:00:00 8.3 6 Sudoeste 18 Sur 0 907.6 0.2 41
2019-04-04 23:00:00 9 8 Sur 21 Oeste 0 907.7 0 38
2019-04-04 22:00:00 10 9 Sudeste 20 Sudeste 0 907.3 -0.9 33
2019-04-04 21:00:00 11.5 9 Sur 22 Sur 0 907.4 -1.2 29
2019-04-04 20:00:00 13.2 13 Sur 27 Oeste 0 907.7 -1.5 24
2019-04-04 19:00:00 14.8 13 Sudoeste 27 Oeste 0 908.2 -1.9 20
2019-04-04 18:00:00 15.3 18 Sudoeste 32 Sudoeste 0 908.6 -2.2 16
2019-04-04 17:00:00 14.9 12 Sudoeste 33 Oeste 0 909.2 -2.2 15
2019-04-04 16:00:00 13.3 13 Oeste 30 Sudoeste 0 910.1 -1.7 20
2019-04-04 15:00:00 12.2 9 Oeste 23 Oeste 0 910.8 -1.2 22
2019-04-04 14:00:00 9.8 5 Nordeste 17 Oeste 0 911.4 -0.4 25
2019-04-04 13:00:00 7.7 6 Norte 19 Norte 0 911.8 0.1 33
2019-04-04 12:00:00 5.9 7 Norte 18 Noroeste 0 912 0.7 40
2019-04-04 11:00:00 4.6 8 Norte 19 Norte 0 911.8 1 46
2019-04-04 10:00:00 3.8 5 Noroeste 14 Noroeste 0 911.7 1.2 51
2019-04-04 09:00:00 2.1 3 Noroeste 10 Norte 0 911.3 1 59
2019-04-04 08:00:00 1.9 5 Norte 12 Norte 0 910.8 0.6 62
2019-04-04 07:00:00 2.8 4 Noroeste 9 Norte 0 910.5 0.3 64
2019-04-04 06:00:00 3 3 Norte 11 Noroeste 0 910.3 -0.3 63
2019-04-04 05:00:00 3 6 Norte 10 Noroeste 0 910.2 -0.7 61
2019-04-04 04:00:00 3.5 5 Norte 10 Norte 0 910.2 -0.9 57
2019-04-04 03:00:00 4.1 5 Norte 12 Norte 0 910.6 -0.5 55
2019-04-04 02:00:00 4.6 5 Norte 14 Norte 0 910.9 -0.1 52
2019-04-04 01:00:00 6.5 9 Norte 22 Norte 0 911.1 0.7 43
2019-04-04 00:00:00 7.5 10 Norte 25 Noroeste 0 911.1 1.3 37
2019-04-03 23:00:00 8.9 12 Noroeste 26 Norte 0 911 1.3 30
2019-04-03 22:00:00 10 9 Noroeste 27 Noroeste 0 910.4 0.5 32
2019-04-03 21:00:00 10.6 10 Noroeste 30 Norte 0 909.8 -0.1 31
2019-04-03 20:00:00 12.4 12 Noroeste 46 Noroeste 0 909.7 -0.4 29
2019-04-03 19:00:00 13.9 18 Noroeste 45 Noroeste 0 909.9 -0.6 31
2019-04-03 18:00:00 16.1 17 Noroeste 41 Noroeste 0 909.9 -1.5 33
2019-04-03 17:00:00 15.6 19 Noroeste 42 Noroeste 0 910.1 -1.9 36
2019-04-03 16:00:00 17 17 Oeste 54 Noroeste 0 910.5 -2.3 31
2019-04-03 15:00:00 15.6 19 Oeste 40 Oeste 0 911.4 -2.3 37
2019-04-03 14:00:00 13.7 14 Oeste 32 Oeste 0 912 -2.1 48
2019-04-03 13:00:00 13.1 12 Oeste 23 Noroeste 0 912.8 -1.6 57
2019-04-03 12:00:00 12 11 Noroeste 23 Oeste 0 913.7 -1.2 60
2019-04-03 11:00:00 9.9 8 Sudoeste 17 Sudoeste 0 914.1 -0.9 74
2019-04-03 10:00:00 7.6 8 Sur 17 Sur 0 914.4 -1.1 86
2019-04-03 09:00:00 6 8 Sur 17 Sur 0 914.9 -1 90
2019-04-03 08:00:00 5.9 8 Sur 17 Sur 0 915 -1.6 89
2019-04-03 07:00:00 6.3 8 Sur 18 Sur 0 915.5 -1.8 89
2019-04-03 06:00:00 6.9 6 Sur 14 Sur 0 915.9 -2.1 88
2019-04-03 05:00:00 7.6 6 Sur 15 Sudoeste 0 916.6 -1.9 87
2019-04-03 04:00:00 8.1 9 Sur 19 Sur 0 917.3 -1.6 86
2019-04-03 03:00:00 8.7 9 Sur 16 Sur 0 918 -1.4 86
2019-04-03 02:00:00 9.5 9 Sur 21 Sur 0 918.5 -1 82
2019-04-03 01:00:00 9.7 6 Sur 16 Sur 0 918.9 -0.5 82
2019-04-03 00:00:00 10.2 9 Sudeste 17 Sudeste 0 919.4 0.1 82
2019-04-02 23:00:00 10.3 8 Sudeste 16 Sudeste 0 919.5 0 78
2019-04-02 22:00:00 11 9 Sudoeste 19 Sudoeste 0 919.4 -0.5 73
2019-04-02 21:00:00 11.2 6 Sur 14 Sudoeste 0 919.3 -0.4 73
2019-04-02 20:00:00 11.5 10 Sudoeste 23 Sudoeste 0 919.5 -0.2 75
2019-04-02 19:00:00 10.8 7 Noroeste 36 Noroeste 0 919.9 -0.1 85
2019-04-02 18:00:00 13.9 19 Oeste 38 Noroeste 0 919.7 -1 60
2019-04-02 17:00:00 15.1 10 Noroeste 32 Sudoeste 0 919.7 -1.8 61
2019-04-02 16:00:00 18.1 18 Sudoeste 34 Sudoeste 0 920 -2.2 43
2019-04-02 15:00:00 16.9 14 Sudoeste 25 Sudoeste 0 920.7 -1.5 49
2019-04-02 14:00:00 14.9 11 Oeste 23 Oeste 0 921.5 -0.4 61
2019-04-02 13:00:00 13.5 9 Sudoeste 18 Sudoeste 0 922.2 0.4 68
2019-04-02 12:00:00 12.3 6 Oeste 19 Oeste 0 922.2 0.7 73
2019-04-02 11:00:00 10.6 6 Sur 17 Sur 0 921.9 0.8 82
2019-04-02 10:00:00 9.5 9 Sur 17 Sur 0 921.8 0.8 87
2019-04-02 09:00:00 8.4 6 Sudeste 13 Sudeste 0 921.5 0.3 88
2019-04-02 08:00:00 8.3 6 Sudeste 13 Sudeste 0 921.1 -0.3 88
2019-04-02 07:00:00 8.5 6 Sur 13 Sudeste 0 921 -0.3 87
2019-04-02 06:00:00 8.5 8 Sur 18 Sur 0 921.2 -0.2 88
2019-04-02 05:00:00 8.5 7 Sur 17 Sur 0 921.4 -0.3 86
2019-04-02 04:00:00 8.7 6 Sur 21 Sur 0 921.3 -0.6 85
2019-04-02 03:00:00 8.9 8 Sudeste 20 Sur 0 921.4 -0.4 86
2019-04-02 02:00:00 9.5 10 Sudeste 18 Sudeste 0 921.7 0.3 87
2019-04-02 01:00:00 10 10 Sudeste 20 Sudeste 0 921.9 1.1 84
2019-04-02 00:00:00 10.4 8 Sudeste 15 Sur 0 921.8 2 82
2019-04-01 23:00:00 10.4 7 Sudeste 13 Sudeste 0 921.4 2 80
2019-04-01 22:00:00 11 5 Sur 13 Sur 0 920.8 1.6 80
2019-04-01 21:00:00 12.4 6 Sur 15 Sudoeste 0 919.8 0.5 74
2019-04-01 20:00:00 14.1 6 Sudoeste 15 Sudoeste 0 919.4 -0.1 60
2019-04-01 19:00:00 17.1 6 Sudoeste 14 Sudoeste 0 919.2 -0.6 49
2019-04-01 18:00:00 15.3 3 Sur 11 Sudoeste 0 919.3 -0.8 56
2019-04-01 17:00:00 13.1 5 Sudoeste 11 Noroeste 0 919.5 -1 68
2019-04-01 16:00:00 12.6 3 Noroeste 13 Norte 0 919.8 -0.8 72
2019-04-01 15:00:00 12.1 3 Noroeste 11 Norte 0 920.1 -0.4 77
2019-04-01 14:00:00 11.9 4 Sur 14 Sudoeste 0 920.5 0.5 75
2019-04-01 13:00:00 11.3 4 Sudeste 12 Sudeste 0 920.6 1 79
2019-04-01 12:00:00 9.9 5 Sudeste 12 Sudeste 0 920.5 1.2 87
2019-04-01 11:00:00 8.8 5 Norte 10 Norte 0 920 1.1 91
2019-04-01 10:00:00 8.1 6 Norte 10 Norte 0 919.6 0.8 94
2019-04-01 09:00:00 7.7 5 Norte 11 Norte 0 919.3 0.5 93
2019-04-01 08:00:00 7.7 5 Nordeste 11 Nordeste 0 918.9 0 93
2019-04-01 07:00:00 7.7 5 Nordeste 10 Nordeste 0 918.8 -0.2 94
2019-04-01 06:00:00 7.6 6 Nordeste 12 Nordeste 0 918.8 -0.5 93
2019-04-01 05:00:00 7.7 8 Nordeste 11 Nordeste 0 918.9 -0.5 93
2019-04-01 04:00:00 8 5 Nordeste 8 Nordeste 0 919 -0.4 92
2019-04-01 03:00:00 8.5 3 Nordeste 8 Nordeste 0 919.3 -0.2 86
2019-04-01 02:00:00 8.8 4 Este 15 Este 0 919.4 0.2 84
2019-04-01 01:00:00 8.9 8 Este 14 Este 0 919.4 0.5 84
2019-04-01 00:00:00 8.9 5 Nordeste 14 Este 0 919.5 1.1 86
2019-03-31 23:00:00 8.8 5 Nordeste 10 Nordeste 0.2 919.2 0.9 86
2019-03-31 22:00:00 8.9 7 Nordeste 12 Nordeste 0 918.9 0.6 87
2019-03-31 21:00:00 9.7 5 Este 15 Este 0 918.4 0.1 81
2019-03-31 20:00:00 10.2 6 Este 17 Este 0 918.3 -0.2 79
2019-03-31 19:00:00 10.8 9 Sudeste 19 Este 0 918.3 -0.6 78
2019-03-31 18:00:00 10.8 9 Este 19 Sudeste 0 918.3 -1.3 79
2019-03-31 17:00:00 10.5 11 Sudeste 21 Sudeste 0 918.5 -1.6 82
2019-03-31 16:00:00 9.8 7 Norte 15 Nordeste 0 918.9 -1.6 88
2019-03-31 15:00:00 9.5 6 Nordeste 13 Norte 0 919.6 -1 87
2019-03-31 14:00:00 8.4 5 Nordeste 15 Este 0 920.1 -0.1 87
2019-03-31 13:00:00 8.3 6 Este 20 Este 0.2 920.5 0.6 82
2019-03-31 12:00:00 8.3 9 Este 27 Este 0 920.6 0.7 81
2019-03-31 11:00:00 7.9 15 Este 29 Sudeste 0 920.2 0.5 77
2019-03-31 10:00:00 8.2 13 Sudeste 32 Este 0 919.9 0.1 65
2019-03-31 09:00:00 8 17 Este 32 Sudeste 0 919.9 -0.4 62
2019-03-31 08:00:00 7.5 17 Este 37 Sudeste 0 919.7 -1.3 66
2019-03-31 07:00:00 7.7 14 Sudeste 28 Este 0 919.8 -1.6 68
2019-03-31 06:00:00 8.5 15 Sudeste 26 Sudeste 0 920.3 -1.6 57
2019-03-31 05:00:00 8.9 17 Sudeste 29 Sudeste 0 921 -1.5 54
2019-03-31 03:00:00 9.4 15 Sudeste 30 Sudeste 0 921.9 -0.6 53
2019-03-31 01:00:00 9.8 18 Sudeste 35 Sudeste 0 922.5 -0.3 54
2019-03-31 00:00:00 9.9 16 Este 33 Sudeste 0 922.3 -0.1 56
2019-03-30 23:00:00 10.5 14 Sudeste 35 Sudeste 0 922.5 0.7 59
2019-03-30 22:00:00 11.9 18 Sudeste 36 Sudeste 0 922.8 0.8 53
2019-03-30 21:00:00 13.3 15 Sudeste 26 Sudeste 0 922.4 0.9 44
2019-03-30 20:00:00 15.2 10 Sudeste 26 Sur 0 921.8 -0.1 36
2019-03-30 19:00:00 17.7 14 Sudeste 27 Sudeste 0 922 -0.6 29
2019-03-30 18:00:00 20.2 10 Sudeste 21 Este 0 921.5 -2 22
2019-03-30 17:00:00 20.9 10 Sudeste 23 Sudeste 0 921.9 -2.6 21
2019-03-30 16:00:00 19.2 9 Este 28 Sudeste 0 922.6 -2.9 21
2019-03-30 15:00:00 18.9 14 Este 27 Este 0 923.5 -2.8 26
2019-03-30 14:00:00 17.5 12 Sudeste 25 Sudeste 0 924.5 -2 28
2019-03-30 13:00:00 15.4 11 Sudeste 27 Sudeste 0 925.5 -1 34
2019-03-30 12:00:00 13.1 13 Sudeste 27 Sudeste 0 926.3 -0.2 44
2019-03-30 11:00:00 10.9 14 Sudeste 27 Sudeste 0 926.5 0.2 52
2019-03-30 10:00:00 8.6 18 Sudeste 30 Este 0 926.5 0.3 59
2019-03-30 09:00:00 6.3 14 Este 28 Este 0 926.5 0.4 65
2019-03-30 08:00:00 4.8 8 Este 26 Este 0 926.3 0 71
2019-03-30 07:00:00 4.8 14 Este 36 Sudeste 0 926.2 -0.1 73
2019-03-30 06:00:00 4.7 19 Sudeste 33 Sudeste 0 926.1 -1 73
2019-03-30 05:00:00 4.7 16 Sudeste 39 Sudeste 0 926.3 -1.1 74
2019-03-30 04:00:00 5.2 17 Sudeste 36 Sudeste 0 926.3 -1.5 70
2019-03-30 03:00:00 5.6 19 Sudeste 34 Sur 0 927.1 -0.8 61
2019-03-30 02:00:00 6.3 17 Sudeste 43 Sudeste 0 927.4 -0.6 52
2019-03-30 01:00:00 7 24 Sudeste 48 Sudeste 0 927.8 0.1 47
2019-03-30 00:00:00 7.8 23 Sudeste 46 Sudeste 0 927.9 0.6 39
2019-03-29 23:00:00 8.8 24 Sudeste 42 Sudeste 0 928 1.3 41
2019-03-29 22:00:00 10.1 17 Sudeste 32 Sudeste 0 927.7 1.1 43
2019-03-29 21:00:00 11.3 13 Sudeste 31 Sudeste 0 927.3 0.8 42
2019-03-29 20:00:00 12.8 14 Sudeste 36 Sur 0 926.7 0.1 37
2019-03-29 19:00:00 14.3 16 Sudeste 33 Sudeste 0 926.6 -0.4 31
2019-03-29 18:00:00 15.1 20 Sudeste 39 Sudeste 0 926.5 -1.2 30
2019-03-29 17:00:00 18.4 22 Sudeste 41 Sudeste 0 926.6 -1.8 22
2019-03-29 16:00:00 18.8 18 Sudeste 41 Sudeste 0 927 -2 20
2019-03-29 15:00:00 18.3 18 Sudeste 48 Sudeste 0 927.7 -1.9 21
2019-03-29 14:00:00 17.1 21 Sudeste 44 Sudeste 0 928.4 -1.6 21
2019-03-29 13:00:00 16 23 Sudeste 48 Sudeste 0 929 -1.2 24
2019-03-29 12:00:00 14.2 22 Sudeste 45 Sudeste 0 929.6 -0.5 26
2019-03-29 11:00:00 11.8 21 Sudeste 48 Sudeste 0 930 0.1 32
2019-03-29 10:00:00 9.5 21 Sudeste 34 Sudeste 0 930.2 0.5 36
2019-03-29 09:00:00 7.3 12 Sudeste 26 Sudeste 0 930.1 0.6 39
2019-03-29 08:00:00 6.3 14 Este 27 Este 0 929.9 0.3 39
2019-03-29 07:00:00 5.4 12 Sudeste 30 Sudeste 0 929.7 -0.2 42
2019-03-29 06:00:00 5.3 16 Sudeste 28 Sudeste 0 929.5 -0.5 46
2019-03-29 05:00:00 5.7 18 Sudeste 32 Sudeste 0 929.6 -0.6 48
2019-03-29 04:00:00 6.5 18 Sudeste 32 Sudeste 0 929.9 -0.3 44
2019-03-29 03:00:00 6.5 15 Sudeste 35 Sudeste 0 930 0 42
2019-03-29 02:00:00 7.2 21 Sudeste 35 Sudeste 0 930.2 0.3 41
2019-03-29 01:00:00 7.9 19 Sudeste 36 Sudeste 0 930.2 0.6 38
2019-03-29 00:00:00 8.8 18 Sudeste 38 Sudeste 0 930 0.8 32
2019-03-28 23:00:00 10.5 19 Sudeste 31 Sudeste 0 929.9 1.2 28
2019-03-28 22:00:00 11.3 10 Sudeste 21 Sudeste 0 929.6 1 25
2019-03-28 21:00:00 12.8 9 Sudeste 18 Sudeste 0 929.2 0.6 22
2019-03-28 20:00:00 15.3 6 Sudeste 15 Sur 0 928.7 0 17
2019-03-28 19:00:00 18.1 6 Sur 15 Este 0 928.6 -0.7 13
2019-03-28 18:00:00 20.7 5 Sudeste 24 Sur 0 928.6 -1.4 11
2019-03-28 17:00:00 20.7 4 Sudeste 27 Sudeste 0 928.7 -1.9 11
2019-03-28 16:00:00 20.6 8 Sur 20 Sudeste 0 929.3 -1.8 11
2019-03-28 15:00:00 19.3 8 Sur 22 Sudeste 0 930 -1.7 12
2019-03-28 14:00:00 16.7 8 Nordeste 25 Sudeste 0 930.6 -1.2 14
2019-03-28 13:00:00 16.7 6 Sudeste 22 Sur 0 931.1 -0.7 15
2019-03-28 12:00:00 14.6 8 Sudeste 23 Sur 0 931.7 -0.1 15
2019-03-28 11:00:00 11.5 5 Sudeste 18 Sudeste 0 931.8 0 24
2019-03-28 10:00:00 8.6 6 Este 14 Este 0 931.8 0.4 37
2019-03-28 09:00:00 6.5 8 Este 16 Este 0 931.8 0.7 42
2019-03-28 08:00:00 4.8 8 Este 17 Este 0 931.8 0.9 47
2019-03-28 07:00:00 4.8 9 Este 20 Este 0 931.4 0.9 45
2019-03-28 06:00:00 5.1 13 Este 19 Este 0 931.1 0.6 45
2019-03-28 05:00:00 5.3 10 Sudeste 23 Sudeste 0 930.9 0.4 48
2019-03-28 04:00:00 5 12 Sudeste 23 Sur 0 930.5 0 46
2019-03-28 03:00:00 6 11 Sur 24 Sudeste 0 930.5 0.5 42
2019-03-28 02:00:00 6.3 11 Sudeste 27 Sudeste 0 930.5 1.3 38
2019-03-28 01:00:00 7.5 15 Sudeste 31 Sudeste 0 930.5 1.7 33
2019-03-28 00:00:00 8.6 17 Sudeste 32 Sudeste 0 930 2 29
2019-03-27 23:00:00 9.9 11 Sudeste 19 Sudeste 0 929.2 1.8 25
2019-03-27 22:00:00 11.6 8 Sudeste 14 Sur 0 928.8 1.9 27
2019-03-27 21:00:00 13 6 Sudoeste 13 Sudoeste 0 928 1.2 28
2019-03-27 20:00:00 14.6 7 Sudoeste 17 Sudoeste 0 927.4 0.3 25
2019-03-27 19:00:00 17.4 9 Sudoeste 17 Oeste 0 926.9 -0.5 20
2019-03-27 18:00:00 19.7 3 Sudoeste 19 Norte 0 926.8 -1.1 17
2019-03-27 17:00:00 19.1 3 Sudoeste 22 Nordeste 0 927.1 -1.5 18
2019-03-27 16:00:00 18.4 6 Noroeste 19 Norte 0 927.4 -1.7 18
2019-03-27 15:00:00 16.8 6 Nordeste 22 Noroeste 0 927.9 -1.5 22
2019-03-27 14:00:00 16.2 8 Oeste 18 Oeste 0 928.6 -0.8 23
2019-03-27 13:00:00 15 8 Sur 21 Sur 0 929.1 -0.3 25
2019-03-27 12:00:00 13.4 6 Sudeste 20 Nordeste 0 929.4 0.4 29
2019-03-27 11:00:00 10.8 6 Sudeste 18 Este 0 929.4 0.8 32
2019-03-27 10:00:00 8.5 9 Este 18 Este 0 929.4 1.4 42
2019-03-27 09:00:00 6.4 8 Este 16 Este 0 929 1.3 59
2019-03-27 08:00:00 4.7 4 Este 15 Nordeste 0 928.6 1.2 72
2019-03-27 07:00:00 5.2 5 Este 22 Este 0 928 0.6 68
2019-03-27 06:00:00 5.3 6 Este 20 Sudeste 0 927.7 0.1 72
2019-03-27 05:00:00 5.4 13 Sudeste 27 Sudeste 0 927.4 -0.1 74
2019-03-27 04:00:00 5.7 11 Sudeste 22 Sudeste 0 927.4 0.1 73
2019-03-27 03:00:00 6 12 Sudeste 31 Sudeste 0 927.6 1.1 73
2019-03-27 02:00:00 6.3 15 Sudeste 39 Sudeste 0 927.5 1.5 71
2019-03-27 01:00:00 7.5 21 Sudeste 41 Sudeste 0 927.3 1.9 57
2019-03-27 00:00:00 8.8 23 Sudeste 38 Sudeste 0 926.5 1.8 48